sensor_id;sensor_type;location;lat;lon;timestamp;P1;durP1;ratioP1;P2;durP2;ratioP2
70951;SDS011;69214;55.880;37.542;2023-08-21T00:02:21;5.33;;;1.70;;
70951;SDS011;69214;55.880;37.542;2023-08-21T00:04:47;4.68;;;1.90;;
70951;SDS011;69214;55.880;37.542;2023-08-21T00:07:13;4.18;;;1.60;;
70951;SDS011;69214;55.880;37.542;2023-08-21T00:09:39;3.77;;;1.57;;
70951;SDS011;69214;55.880;37.542;2023-08-21T00:12:05;5.40;;;1.85;;
70951;SDS011;69214;55.880;37.542;2023-08-21T00:14:31;5.53;;;1.50;;
70951;SDS011;69214;55.880;37.542;2023-08-21T00:16:57;5.00;;;1.77;;
70951;SDS011;69214;55.880;37.542;2023-08-21T00:19:23;3.95;;;1.40;;
70951;SDS011;69214;55.880;37.542;2023-08-21T00:21:49;4.45;;;1.85;;
70951;SDS011;69214;55.880;37.542;2023-08-21T00:24:14;5.70;;;2.03;;
70951;SDS011;69214;55.880;37.542;2023-08-21T00:26:41;4.53;;;1.80;;
70951;SDS011;69214;55.880;37.542;2023-08-21T00:29:06;4.82;;;1.90;;
70951;SDS011;69214;55.880;37.542;2023-08-21T00:31:32;4.70;;;1.67;;
70951;SDS011;69214;55.880;37.542;2023-08-21T00:33:58;5.35;;;2.20;;
70951;SDS011;69214;55.880;37.542;2023-08-21T00:36:24;5.03;;;1.58;;
70951;SDS011;69214;55.880;37.542;2023-08-21T00:38:49;4.90;;;1.80;;
70951;SDS011;69214;55.880;37.542;2023-08-21T00:41:15;4.20;;;1.67;;
70951;SDS011;69214;55.880;37.542;2023-08-21T00:43:41;6.63;;;1.80;;
70951;SDS011;69214;55.880;37.542;2023-08-21T00:46:07;3.95;;;1.75;;
70951;SDS011;69214;55.880;37.542;2023-08-21T00:48:33;4.63;;;2.05;;
70951;SDS011;69214;55.880;37.542;2023-08-21T00:51:01;5.38;;;1.60;;
70951;SDS011;69214;55.880;37.542;2023-08-21T00:53:27;7.13;;;1.60;;
70951;SDS011;69214;55.880;37.542;2023-08-21T00:55:53;5.15;;;1.85;;
70951;SDS011;69214;55.880;37.542;2023-08-21T00:58:19;4.43;;;1.77;;
70951;SDS011;69214;55.880;37.542;2023-08-21T01:00:45;4.25;;;1.65;;
70951;SDS011;69214;55.880;37.542;2023-08-21T01:03:15;4.53;;;1.67;;
70951;SDS011;69214;55.880;37.542;2023-08-21T01:05:41;4.82;;;2.03;;
70951;SDS011;69214;55.880;37.542;2023-08-21T01:16:30;5.40;;;2.10;;
70951;SDS011;69214;55.880;37.542;2023-08-21T01:18:57;5.18;;;1.77;;
70951;SDS011;69214;55.880;37.542;2023-08-21T01:21:25;4.38;;;1.60;;
70951;SDS011;69214;55.880;37.542;2023-08-21T01:23:51;5.03;;;1.52;;
70951;SDS011;69214;55.880;37.542;2023-08-21T01:26:18;6.47;;;1.80;;
70951;SDS011;69214;55.880;37.542;2023-08-21T01:28:44;4.57;;;1.70;;
70951;SDS011;69214;55.880;37.542;2023-08-21T01:31:26;4.97;;;1.70;;
70951;SDS011;69214;55.880;37.542;2023-08-21T01:33:58;3.95;;;1.20;;
70951;SDS011;69214;55.880;37.542;2023-08-21T01:36:27;4.97;;;1.47;;
70951;SDS011;69214;55.880;37.542;2023-08-21T01:38:54;5.00;;;1.80;;
70951;SDS011;69214;55.880;37.542;2023-08-21T01:41:23;4.03;;;1.40;;
70951;SDS011;69214;55.880;37.542;2023-08-21T01:43:53;5.13;;;1.95;;
70951;SDS011;69214;55.880;37.542;2023-08-21T01:46:19;4.97;;;1.60;;
70951;SDS011;69214;55.880;37.542;2023-08-21T01:48:45;4.50;;;1.50;;
70951;SDS011;69214;55.880;37.542;2023-08-21T01:51:11;4.95;;;1.88;;
70951;SDS011;69214;55.880;37.542;2023-08-21T01:53:38;3.80;;;1.40;;
70951;SDS011;69214;55.880;37.542;2023-08-21T01:56:04;5.80;;;1.90;;
70951;SDS011;69214;55.880;37.542;2023-08-21T01:58:31;4.03;;;1.52;;
70951;SDS011;69214;55.880;37.542;2023-08-21T02:00:57;4.25;;;1.70;;
70951;SDS011;69214;55.880;37.542;2023-08-21T02:03:25;4.20;;;1.50;;
70951;SDS011;69214;55.880;37.542;2023-08-21T02:05:51;6.03;;;1.67;;
70951;SDS011;69214;55.880;37.542;2023-08-21T02:08:22;6.57;;;1.80;;
70951;SDS011;69214;55.880;37.542;2023-08-21T02:10:49;5.95;;;1.50;;
70951;SDS011;69214;55.880;37.542;2023-08-21T02:13:17;7.00;;;1.88;;
70951;SDS011;69214;55.880;37.542;2023-08-21T02:15:44;5.50;;;1.80;;
70951;SDS011;69214;55.880;37.542;2023-08-21T02:18:31;7.72;;;2.03;;
70951;SDS011;69214;55.880;37.542;2023-08-21T02:20:57;6.35;;;1.63;;
70951;SDS011;69214;55.880;37.542;2023-08-21T02:23:23;5.82;;;1.83;;
70951;SDS011;69214;55.880;37.542;2023-08-21T02:25:52;4.40;;;1.80;;
70951;SDS011;69214;55.880;37.542;2023-08-21T02:28:18;7.57;;;1.58;;
70951;SDS011;69214;55.880;37.542;2023-08-21T02:30:43;4.47;;;1.83;;
70951;SDS011;69214;55.880;37.542;2023-08-21T02:33:09;3.93;;;1.53;;
70951;SDS011;69214;55.880;37.542;2023-08-21T02:35:35;5.93;;;1.48;;
70951;SDS011;69214;55.880;37.542;2023-08-21T02:38:01;5.97;;;1.77;;
70951;SDS011;69214;55.880;37.542;2023-08-21T02:40:27;6.10;;;1.58;;
70951;SDS011;69214;55.880;37.542;2023-08-21T02:42:53;4.17;;;1.87;;
70951;SDS011;69214;55.880;37.542;2023-08-21T02:45:20;5.45;;;1.52;;
70951;SDS011;69214;55.880;37.542;2023-08-21T02:47:46;5.35;;;1.52;;
70951;SDS011;69214;55.880;37.542;2023-08-21T02:50:12;5.63;;;1.30;;
70951;SDS011;69214;55.880;37.542;2023-08-21T02:52:38;3.63;;;1.25;;
70951;SDS011;69214;55.880;37.542;2023-08-21T02:55:04;5.75;;;1.20;;
70951;SDS011;69214;55.880;37.542;2023-08-21T02:57:30;4.13;;;1.50;;
70951;SDS011;69214;55.880;37.542;2023-08-21T02:59:56;4.13;;;1.40;;
70951;SDS011;69214;55.880;37.542;2023-08-21T03:02:22;3.95;;;1.50;;
70951;SDS011;69214;55.880;37.542;2023-08-21T03:04:49;3.50;;;1.10;;
70951;SDS011;69214;55.880;37.542;2023-08-21T03:07:15;4.07;;;1.10;;
70951;SDS011;69214;55.880;37.542;2023-08-21T03:09:42;6.53;;;1.35;;
70951;SDS011;69214;55.880;37.542;2023-08-21T03:12:07;7.83;;;1.70;;
70951;SDS011;69214;55.880;37.542;2023-08-21T03:14:34;5.20;;;1.33;;
70951;SDS011;69214;55.880;37.542;2023-08-21T03:17:00;4.10;;;1.20;;
70951;SDS011;69214;55.880;37.542;2023-08-21T03:19:26;5.43;;;1.10;;
70951;SDS011;69214;55.880;37.542;2023-08-21T03:21:53;4.30;;;1.43;;
70951;SDS011;69214;55.880;37.542;2023-08-21T03:24:19;3.90;;;1.20;;
70951;SDS011;69214;55.880;37.542;2023-08-21T03:26:45;5.03;;;1.45;;
70951;SDS011;69214;55.880;37.542;2023-08-21T03:29:11;3.88;;;1.40;;
70951;SDS011;69214;55.880;37.542;2023-08-21T03:31:36;4.20;;;1.47;;
70951;SDS011;69214;55.880;37.542;2023-08-21T03:34:02;3.83;;;1.35;;
70951;SDS011;69214;55.880;37.542;2023-08-21T03:36:28;8.05;;;1.55;;
70951;SDS011;69214;55.880;37.542;2023-08-21T03:39:02;4.73;;;1.70;;
70951;SDS011;69214;55.880;37.542;2023-08-21T03:41:35;4.47;;;1.50;;
70951;SDS011;69214;55.880;37.542;2023-08-21T03:44:01;3.63;;;1.38;;
70951;SDS011;69214;55.880;37.542;2023-08-21T03:46:27;3.27;;;0.80;;
70951;SDS011;69214;55.880;37.542;2023-08-21T03:48:54;2.30;;;0.75;;
70951;SDS011;69214;55.880;37.542;2023-08-21T03:51:20;2.65;;;0.95;;
70951;SDS011;69214;55.880;37.542;2023-08-21T03:53:46;2.97;;;0.53;;
70951;SDS011;69214;55.880;37.542;2023-08-21T03:56:11;4.05;;;0.70;;
70951;SDS011;69214;55.880;37.542;2023-08-21T03:58:37;2.97;;;0.73;;
70951;SDS011;69214;55.880;37.542;2023-08-21T04:01:03;2.67;;;0.77;;
70951;SDS011;69214;55.880;37.542;2023-08-21T04:03:29;1.70;;;0.60;;
70951;SDS011;69214;55.880;37.542;2023-08-21T04:05:55;1.75;;;0.50;;
70951;SDS011;69214;55.880;37.542;2023-08-21T04:08:24;1.95;;;0.70;;
70951;SDS011;69214;55.880;37.542;2023-08-21T04:10:50;1.73;;;0.50;;
70951;SDS011;69214;55.880;37.542;2023-08-21T04:13:20;2.15;;;0.50;;
70951;SDS011;69214;55.880;37.542;2023-08-21T04:15:48;2.38;;;0.50;;
70951;SDS011;69214;55.880;37.542;2023-08-21T04:18:15;2.78;;;0.70;;
70951;SDS011;69214;55.880;37.542;2023-08-21T04:20:40;1.77;;;0.70;;
70951;SDS011;69214;55.880;37.542;2023-08-21T04:23:07;1.48;;;0.50;;
70951;SDS011;69214;55.880;37.542;2023-08-21T04:25:33;1.60;;;0.55;;
70951;SDS011;69214;55.880;37.542;2023-08-21T04:27:59;2.15;;;0.70;;
70951;SDS011;69214;55.880;37.542;2023-08-21T04:30:26;2.83;;;0.67;;
70951;SDS011;69214;55.880;37.542;2023-08-21T04:32:52;1.90;;;0.68;;
70951;SDS011;69214;55.880;37.542;2023-08-21T04:35:19;1.75;;;0.65;;
70951;SDS011;69214;55.880;37.542;2023-08-21T04:37:48;3.85;;;0.90;;
70951;SDS011;69214;55.880;37.542;2023-08-21T04:40:16;3.00;;;0.80;;
70951;SDS011;69214;55.880;37.542;2023-08-21T04:42:46;2.38;;;0.60;;
70951;SDS011;69214;55.880;37.542;2023-08-21T04:45:13;2.30;;;0.63;;
70951;SDS011;69214;55.880;37.542;2023-08-21T04:47:40;2.08;;;0.90;;
70951;SDS011;69214;55.880;37.542;2023-08-21T04:50:07;2.38;;;0.70;;
70951;SDS011;69214;55.880;37.542;2023-08-21T04:52:33;3.20;;;0.70;;
70951;SDS011;69214;55.880;37.542;2023-08-21T04:54:59;1.83;;;0.65;;
70951;SDS011;69214;55.880;37.542;2023-08-21T04:57:30;1.83;;;0.70;;
70951;SDS011;69214;55.880;37.542;2023-08-21T04:59:56;1.52;;;0.60;;
70951;SDS011;69214;55.880;37.542;2023-08-21T05:02:26;3.75;;;0.55;;
70951;SDS011;69214;55.880;37.542;2023-08-21T05:04:52;1.97;;;1.00;;
70951;SDS011;69214;55.880;37.542;2023-08-21T05:07:20;2.40;;;0.80;;
70951;SDS011;69214;55.880;37.542;2023-08-21T05:09:45;2.22;;;0.65;;
70951;SDS011;69214;55.880;37.542;2023-08-21T05:12:13;2.05;;;1.00;;
70951;SDS011;69214;55.880;37.542;2023-08-21T05:14:38;2.03;;;0.80;;
70951;SDS011;69214;55.880;37.542;2023-08-21T05:17:04;2.13;;;0.70;;
70951;SDS011;69214;55.880;37.542;2023-08-21T05:19:30;4.37;;;0.70;;
70951;SDS011;69214;55.880;37.542;2023-08-21T05:21:56;1.90;;;0.50;;
70951;SDS011;69214;55.880;37.542;2023-08-21T05:24:22;1.30;;;0.70;;
70951;SDS011;69214;55.880;37.542;2023-08-21T05:26:56;2.83;;;0.65;;
70951;SDS011;69214;55.880;37.542;2023-08-21T05:29:22;2.53;;;0.63;;
70951;SDS011;69214;55.880;37.542;2023-08-21T05:31:48;2.47;;;0.82;;
70951;SDS011;69214;55.880;37.542;2023-08-21T05:34:14;1.75;;;1.08;;
70951;SDS011;69214;55.880;37.542;2023-08-21T05:36:40;1.67;;;0.70;;
70951;SDS011;69214;55.880;37.542;2023-08-21T05:39:07;1.73;;;0.60;;
70951;SDS011;69214;55.880;37.542;2023-08-21T05:41:34;1.52;;;0.50;;
70951;SDS011;69214;55.880;37.542;2023-08-21T05:44:00;3.88;;;0.77;;
70951;SDS011;69214;55.880;37.542;2023-08-21T05:46:26;1.42;;;0.68;;
70951;SDS011;69214;55.880;37.542;2023-08-21T05:48:52;2.13;;;0.80;;
70951;SDS011;69214;55.880;37.542;2023-08-21T05:51:18;1.92;;;0.90;;
70951;SDS011;69214;55.880;37.542;2023-08-21T05:53:43;2.30;;;0.97;;
70951;SDS011;69214;55.880;37.542;2023-08-21T05:56:09;1.42;;;0.80;;
70951;SDS011;69214;55.880;37.542;2023-08-21T05:58:35;2.08;;;1.00;;
70951;SDS011;69214;55.880;37.542;2023-08-21T06:01:01;2.30;;;0.73;;
70951;SDS011;69214;55.880;37.542;2023-08-21T06:03:27;2.00;;;0.80;;
70951;SDS011;69214;55.880;37.542;2023-08-21T06:06:08;2.13;;;0.77;;
70951;SDS011;69214;55.880;37.542;2023-08-21T06:08:34;3.15;;;0.70;;
70951;SDS011;69214;55.880;37.542;2023-08-21T06:10:59;2.97;;;1.37;;
70951;SDS011;69214;55.880;37.542;2023-08-21T06:13:25;2.60;;;0.70;;
70951;SDS011;69214;55.880;37.542;2023-08-21T06:15:53;2.97;;;0.90;;
70951;SDS011;69214;55.880;37.542;2023-08-21T06:18:21;1.40;;;0.88;;
70951;SDS011;69214;55.880;37.542;2023-08-21T06:20:48;2.00;;;0.60;;
70951;SDS011;69214;55.880;37.542;2023-08-21T06:23:21;2.58;;;0.82;;
70951;SDS011;69214;55.880;37.542;2023-08-21T06:25:48;3.00;;;1.00;;
70951;SDS011;69214;55.880;37.542;2023-08-21T06:28:14;2.28;;;1.20;;
70951;SDS011;69214;55.880;37.542;2023-08-21T06:30:41;1.70;;;0.90;;
70951;SDS011;69214;55.880;37.542;2023-08-21T06:33:06;3.75;;;0.82;;
70951;SDS011;69214;55.880;37.542;2023-08-21T06:35:35;2.28;;;1.20;;
70951;SDS011;69214;55.880;37.542;2023-08-21T06:38:02;1.40;;;0.93;;
70951;SDS011;69214;55.880;37.542;2023-08-21T06:40:28;2.28;;;1.15;;
70951;SDS011;69214;55.880;37.542;2023-08-21T06:42:53;3.03;;;1.40;;
70951;SDS011;69214;55.880;37.542;2023-08-21T06:45:23;2.72;;;1.15;;
70951;SDS011;69214;55.880;37.542;2023-08-21T06:47:49;2.50;;;1.20;;
70951;SDS011;69214;55.880;37.542;2023-08-21T06:50:16;3.20;;;1.15;;
70951;SDS011;69214;55.880;37.542;2023-08-21T06:52:42;2.63;;;0.85;;
70951;SDS011;69214;55.880;37.542;2023-08-21T06:55:07;4.40;;;0.83;;
70951;SDS011;69214;55.880;37.542;2023-08-21T06:57:33;1.42;;;0.60;;
70951;SDS011;69214;55.880;37.542;2023-08-21T06:59:59;2.88;;;0.65;;
70951;SDS011;69214;55.880;37.542;2023-08-21T07:02:25;2.07;;;0.50;;
70951;SDS011;69214;55.880;37.542;2023-08-21T07:04:51;1.35;;;0.50;;
70951;SDS011;69214;55.880;37.542;2023-08-21T07:07:17;1.58;;;0.40;;
70951;SDS011;69214;55.880;37.542;2023-08-21T07:09:43;2.90;;;0.50;;
70951;SDS011;69214;55.880;37.542;2023-08-21T07:12:08;1.05;;;0.43;;
70951;SDS011;69214;55.880;37.542;2023-08-21T07:14:34;1.58;;;0.32;;
70951;SDS011;69214;55.880;37.542;2023-08-21T07:17:00;3.20;;;0.40;;
70951;SDS011;69214;55.880;37.542;2023-08-21T07:19:26;1.80;;;0.30;;
70951;SDS011;69214;55.880;37.542;2023-08-21T07:21:52;2.85;;;0.50;;
70951;SDS011;69214;55.880;37.542;2023-08-21T07:24:18;1.73;;;0.40;;
70951;SDS011;69214;55.880;37.542;2023-08-21T07:26:44;1.40;;;0.50;;
70951;SDS011;69214;55.880;37.542;2023-08-21T07:29:09;1.40;;;0.47;;
70951;SDS011;69214;55.880;37.542;2023-08-21T07:31:35;1.42;;;0.30;;
70951;SDS011;69214;55.880;37.542;2023-08-21T07:34:01;2.40;;;0.40;;
70951;SDS011;69214;55.880;37.542;2023-08-21T07:36:35;2.58;;;0.60;;
70951;SDS011;69214;55.880;37.542;2023-08-21T07:39:01;2.17;;;0.53;;
70951;SDS011;69214;55.880;37.542;2023-08-21T07:41:27;1.20;;;0.40;;
70951;SDS011;69214;55.880;37.542;2023-08-21T07:43:53;0.95;;;0.40;;
70951;SDS011;69214;55.880;37.542;2023-08-21T07:46:19;1.17;;;0.37;;
70951;SDS011;69214;55.880;37.542;2023-08-21T07:48:45;1.60;;;0.30;;
70951;SDS011;69214;55.880;37.542;2023-08-21T07:51:11;0.95;;;0.40;;
70951;SDS011;69214;55.880;37.542;2023-08-21T07:53:37;1.13;;;0.30;;
70951;SDS011;69214;55.880;37.542;2023-08-21T07:56:03;2.17;;;0.40;;
70951;SDS011;69214;55.880;37.542;2023-08-21T07:58:30;1.00;;;0.40;;
70951;SDS011;69214;55.880;37.542;2023-08-21T08:00:56;1.67;;;0.50;;
70951;SDS011;69214;55.880;37.542;2023-08-21T08:03:22;1.95;;;0.40;;
70951;SDS011;69214;55.880;37.542;2023-08-21T08:05:48;1.52;;;0.40;;
70951;SDS011;69214;55.880;37.542;2023-08-21T08:08:16;1.90;;;0.50;;
70951;SDS011;69214;55.880;37.542;2023-08-21T08:10:43;1.20;;;0.30;;
70951;SDS011;69214;55.880;37.542;2023-08-21T08:13:09;1.27;;;0.40;;
70951;SDS011;69214;55.880;37.542;2023-08-21T08:15:36;0.95;;;0.40;;
70951;SDS011;69214;55.880;37.542;2023-08-21T08:18:02;0.93;;;0.30;;
70951;SDS011;69214;55.880;37.542;2023-08-21T08:20:29;3.97;;;0.33;;
70951;SDS011;69214;55.880;37.542;2023-08-21T08:22:55;2.95;;;0.70;;
70951;SDS011;69214;55.880;37.542;2023-08-21T08:25:22;0.98;;;0.40;;
70951;SDS011;69214;55.880;37.542;2023-08-21T08:27:48;1.50;;;0.40;;
70951;SDS011;69214;55.880;37.542;2023-08-21T08:30:14;1.20;;;0.38;;
70951;SDS011;69214;55.880;37.542;2023-08-21T08:32:43;1.90;;;0.30;;
70951;SDS011;69214;55.880;37.542;2023-08-21T08:35:14;1.17;;;0.30;;
70951;SDS011;69214;55.880;37.542;2023-08-21T08:37:42;1.48;;;0.45;;
70951;SDS011;69214;55.880;37.542;2023-08-21T08:40:09;3.63;;;0.73;;
70951;SDS011;69214;55.880;37.542;2023-08-21T08:42:37;1.42;;;0.40;;
70951;SDS011;69214;55.880;37.542;2023-08-21T08:45:04;2.30;;;0.50;;
70951;SDS011;69214;55.880;37.542;2023-08-21T08:47:34;1.60;;;0.35;;
70951;SDS011;69214;55.880;37.542;2023-08-21T08:50:04;1.00;;;0.32;;
70951;SDS011;69214;55.880;37.542;2023-08-21T08:52:34;3.80;;;0.35;;
70951;SDS011;69214;55.880;37.542;2023-08-21T08:55:05;1.45;;;0.40;;
70951;SDS011;69214;55.880;37.542;2023-08-21T08:57:34;2.47;;;0.40;;
70951;SDS011;69214;55.880;37.542;2023-08-21T09:00:02;1.88;;;0.40;;
70951;SDS011;69214;55.880;37.542;2023-08-21T09:02:35;1.58;;;0.30;;
70951;SDS011;69214;55.880;37.542;2023-08-21T09:05:01;1.13;;;0.30;;
70951;SDS011;69214;55.880;37.542;2023-08-21T09:07:29;1.45;;;0.32;;
70951;SDS011;69214;55.880;37.542;2023-08-21T09:09:56;2.03;;;0.33;;
70951;SDS011;69214;55.880;37.542;2023-08-21T09:12:21;2.33;;;0.43;;
70951;SDS011;69214;55.880;37.542;2023-08-21T09:14:48;4.18;;;0.47;;
70951;SDS011;69214;55.880;37.542;2023-08-21T09:17:14;1.92;;;0.40;;
70951;SDS011;69214;55.880;37.542;2023-08-21T09:19:40;2.83;;;0.30;;
70951;SDS011;69214;55.880;37.542;2023-08-21T09:22:10;1.88;;;0.55;;
70951;SDS011;69214;55.880;37.542;2023-08-21T09:24:59;1.70;;;0.45;;
70951;SDS011;69214;55.880;37.542;2023-08-21T09:27:34;1.90;;;0.43;;
70951;SDS011;69214;55.880;37.542;2023-08-21T09:30:05;1.48;;;0.30;;
70951;SDS011;69214;55.880;37.542;2023-08-21T09:32:54;4.20;;;0.30;;
70951;SDS011;69214;55.880;37.542;2023-08-21T09:35:22;2.75;;;0.40;;
70951;SDS011;69214;55.880;37.542;2023-08-21T09:37:49;3.85;;;0.50;;
70951;SDS011;69214;55.880;37.542;2023-08-21T09:40:19;2.83;;;0.38;;
70951;SDS011;69214;55.880;37.542;2023-08-21T09:42:51;2.17;;;0.28;;
70951;SDS011;69214;55.880;37.542;2023-08-21T09:45:25;1.50;;;0.37;;
70951;SDS011;69214;55.880;37.542;2023-08-21T09:47:53;2.67;;;0.40;;
70951;SDS011;69214;55.880;37.542;2023-08-21T09:50:21;2.38;;;0.40;;
70951;SDS011;69214;55.880;37.542;2023-08-21T09:52:48;2.85;;;0.50;;
70951;SDS011;69214;55.880;37.542;2023-08-21T09:55:34;2.30;;;0.32;;
70951;SDS011;69214;55.880;37.542;2023-08-21T09:58:01;2.40;;;0.30;;
70951;SDS011;69214;55.880;37.542;2023-08-21T10:00:32;1.67;;;0.50;;
70951;SDS011;69214;55.880;37.542;2023-08-21T10:03:00;2.53;;;0.40;;
70951;SDS011;69214;55.880;37.542;2023-08-21T10:05:29;1.65;;;0.30;;
70951;SDS011;69214;55.880;37.542;2023-08-21T10:08:00;2.63;;;0.30;;
70951;SDS011;69214;55.880;37.542;2023-08-21T10:10:35;1.40;;;0.27;;
70951;SDS011;69214;55.880;37.542;2023-08-21T10:13:03;2.78;;;0.30;;
70951;SDS011;69214;55.880;37.542;2023-08-21T10:15:30;1.98;;;0.30;;
70951;SDS011;69214;55.880;37.542;2023-08-21T10:18:18;1.77;;;0.35;;
70951;SDS011;69214;55.880;37.542;2023-08-21T10:20:52;1.85;;;0.50;;
70951;SDS011;69214;55.880;37.542;2023-08-21T10:23:29;1.90;;;0.30;;
70951;SDS011;69214;55.880;37.542;2023-08-21T10:26:00;1.30;;;0.30;;
70951;SDS011;69214;55.880;37.542;2023-08-21T10:33:57;1.40;;;0.30;;
70951;SDS011;69214;55.880;37.542;2023-08-21T10:39:02;1.55;;;0.30;;
70951;SDS011;69214;55.880;37.542;2023-08-21T10:41:29;2.28;;;0.40;;
70951;SDS011;69214;55.880;37.542;2023-08-21T10:43:55;2.00;;;0.35;;
70951;SDS011;69214;55.880;37.542;2023-08-21T10:46:21;4.75;;;0.50;;
70951;SDS011;69214;55.880;37.542;2023-08-21T10:48:47;2.73;;;0.37;;
70951;SDS011;69214;55.880;37.542;2023-08-21T10:51:14;1.48;;;0.45;;
70951;SDS011;69214;55.880;37.542;2023-08-21T10:53:42;1.73;;;0.30;;
70951;SDS011;69214;55.880;37.542;2023-08-21T10:56:08;1.88;;;0.30;;
70951;SDS011;69214;55.880;37.542;2023-08-21T10:58:34;2.60;;;0.40;;
70951;SDS011;69214;55.880;37.542;2023-08-21T11:01:06;2.95;;;0.30;;
70951;SDS011;69214;55.880;37.542;2023-08-21T11:03:32;1.77;;;0.30;;
70951;SDS011;69214;55.880;37.542;2023-08-21T11:08:34;2.50;;;0.38;;
70951;SDS011;69214;55.880;37.542;2023-08-21T11:11:04;1.95;;;0.30;;
70951;SDS011;69214;55.880;37.542;2023-08-21T11:13:31;2.88;;;0.30;;
70951;SDS011;69214;55.880;37.542;2023-08-21T11:16:02;2.85;;;0.40;;
70951;SDS011;69214;55.880;37.542;2023-08-21T11:18:30;1.83;;;0.27;;
70951;SDS011;69214;55.880;37.542;2023-08-21T11:21:03;1.70;;;0.40;;
70951;SDS011;69214;55.880;37.542;2023-08-21T11:23:39;2.65;;;0.40;;
70951;SDS011;69214;55.880;37.542;2023-08-21T11:26:09;4.57;;;0.40;;
70951;SDS011;69214;55.880;37.542;2023-08-21T11:28:35;1.48;;;0.25;;
70951;SDS011;69214;55.880;37.542;2023-08-21T11:31:02;3.00;;;0.30;;
70951;SDS011;69214;55.880;37.542;2023-08-21T11:33:28;2.22;;;0.35;;
70951;SDS011;69214;55.880;37.542;2023-08-21T11:35:55;0.80;;;0.25;;
70951;SDS011;69214;55.880;37.542;2023-08-21T11:38:23;1.38;;;0.28;;
70951;SDS011;69214;55.880;37.542;2023-08-21T11:40:52;3.38;;;0.30;;
70951;SDS011;69214;55.880;37.542;2023-08-21T11:43:35;2.53;;;0.30;;
70951;SDS011;69214;55.880;37.542;2023-08-21T11:46:03;3.00;;;0.47;;
70951;SDS011;69214;55.880;37.542;2023-08-21T11:48:30;1.40;;;0.40;;
70951;SDS011;69214;55.880;37.542;2023-08-21T11:50:56;2.95;;;0.30;;
70951;SDS011;69214;55.880;37.542;2023-08-21T11:53:30;1.07;;;0.30;;
70951;SDS011;69214;55.880;37.542;2023-08-21T11:56:02;1.27;;;0.20;;
70951;SDS011;69214;55.880;37.542;2023-08-21T11:58:29;1.60;;;0.30;;
70951;SDS011;69214;55.880;37.542;2023-08-21T12:01:01;1.55;;;0.30;;
70951;SDS011;69214;55.880;37.542;2023-08-21T12:03:29;1.63;;;0.20;;
70951;SDS011;69214;55.880;37.542;2023-08-21T12:05:57;0.67;;;0.20;;
70951;SDS011;69214;55.880;37.542;2023-08-21T12:08:22;1.02;;;0.30;;
70951;SDS011;69214;55.880;37.542;2023-08-21T12:10:51;0.80;;;0.20;;
70951;SDS011;69214;55.880;37.542;2023-08-21T12:13:18;2.42;;;0.30;;
70951;SDS011;69214;55.880;37.542;2023-08-21T12:15:44;1.43;;;0.30;;
70951;SDS011;69214;55.880;37.542;2023-08-21T12:18:10;2.05;;;0.25;;
70951;SDS011;69214;55.880;37.542;2023-08-21T12:20:36;0.88;;;0.20;;
70951;SDS011;69214;55.880;37.542;2023-08-21T12:23:02;0.77;;;0.30;;
70951;SDS011;69214;55.880;37.542;2023-08-21T12:25:28;3.33;;;0.40;;
70951;SDS011;69214;55.880;37.542;2023-08-21T12:27:55;1.88;;;0.30;;
70951;SDS011;69214;55.880;37.542;2023-08-21T12:30:21;2.97;;;0.30;;
70951;SDS011;69214;55.880;37.542;2023-08-21T12:32:47;1.13;;;0.20;;
70951;SDS011;69214;55.880;37.542;2023-08-21T12:35:13;1.35;;;0.20;;
70951;SDS011;69214;55.880;37.542;2023-08-21T12:37:39;1.55;;;0.30;;
70951;SDS011;69214;55.880;37.542;2023-08-21T12:40:05;1.65;;;0.30;;
70951;SDS011;69214;55.880;37.542;2023-08-21T12:42:32;1.13;;;0.30;;
70951;SDS011;69214;55.880;37.542;2023-08-21T12:44:58;2.10;;;0.55;;
70951;SDS011;69214;55.880;37.542;2023-08-21T12:47:24;1.98;;;0.20;;
70951;SDS011;69214;55.880;37.542;2023-08-21T12:49:50;3.75;;;0.20;;
70951;SDS011;69214;55.880;37.542;2023-08-21T12:52:16;1.00;;;0.20;;
70951;SDS011;69214;55.880;37.542;2023-08-21T12:54:43;1.35;;;0.30;;
70951;SDS011;69214;55.880;37.542;2023-08-21T12:57:09;1.52;;;0.40;;
70951;SDS011;69214;55.880;37.542;2023-08-21T12:59:37;1.10;;;0.20;;
70951;SDS011;69214;55.880;37.542;2023-08-21T13:02:03;1.70;;;0.37;;
70951;SDS011;69214;55.880;37.542;2023-08-21T13:04:31;1.23;;;0.20;;
70951;SDS011;69214;55.880;37.542;2023-08-21T13:06:57;2.22;;;0.40;;
70951;SDS011;69214;55.880;37.542;2023-08-21T13:09:23;1.13;;;0.20;;
70951;SDS011;69214;55.880;37.542;2023-08-21T13:11:53;2.42;;;0.30;;
70951;SDS011;69214;55.880;37.542;2023-08-21T13:14:19;2.20;;;0.23;;
70951;SDS011;69214;55.880;37.542;2023-08-21T13:16:45;2.35;;;0.35;;
70951;SDS011;69214;55.880;37.542;2023-08-21T13:19:11;1.60;;;0.22;;
70951;SDS011;69214;55.880;37.542;2023-08-21T13:21:37;1.30;;;0.30;;
70951;SDS011;69214;55.880;37.542;2023-08-21T13:24:03;2.10;;;0.40;;
70951;SDS011;69214;55.880;37.542;2023-08-21T13:26:30;1.80;;;0.40;;
70951;SDS011;69214;55.880;37.542;2023-08-21T13:28:56;1.52;;;0.20;;
70951;SDS011;69214;55.880;37.542;2023-08-21T13:31:22;1.70;;;0.30;;
70951;SDS011;69214;55.880;37.542;2023-08-21T13:33:48;2.63;;;0.30;;
70951;SDS011;69214;55.880;37.542;2023-08-21T13:36:16;1.52;;;0.38;;
70951;SDS011;69214;55.880;37.542;2023-08-21T13:38:43;2.42;;;0.20;;
70951;SDS011;69214;55.880;37.542;2023-08-21T13:41:10;1.58;;;0.25;;
70951;SDS011;69214;55.880;37.542;2023-08-21T13:43:36;1.48;;;0.20;;
70951;SDS011;69214;55.880;37.542;2023-08-21T13:46:03;2.53;;;0.30;;
70951;SDS011;69214;55.880;37.542;2023-08-21T13:48:30;2.17;;;0.30;;
70951;SDS011;69214;55.880;37.542;2023-08-21T13:50:59;1.63;;;0.28;;
70951;SDS011;69214;55.880;37.542;2023-08-21T13:53:25;1.60;;;0.20;;
70951;SDS011;69214;55.880;37.542;2023-08-21T13:55:51;0.50;;;0.10;;
70951;SDS011;69214;55.880;37.542;2023-08-21T13:58:17;1.53;;;0.30;;
70951;SDS011;69214;55.880;37.542;2023-08-21T14:00:45;1.77;;;0.25;;
70951;SDS011;69214;55.880;37.542;2023-08-21T14:03:11;2.67;;;0.20;;
70951;SDS011;69214;55.880;37.542;2023-08-21T14:05:36;1.80;;;0.30;;
70951;SDS011;69214;55.880;37.542;2023-08-21T14:08:02;1.47;;;0.30;;
70951;SDS011;69214;55.880;37.542;2023-08-21T14:10:30;1.00;;;0.20;;
70951;SDS011;69214;55.880;37.542;2023-08-21T14:12:56;2.08;;;0.30;;
70951;SDS011;69214;55.880;37.542;2023-08-21T14:15:25;3.28;;;0.40;;
70951;SDS011;69214;55.880;37.542;2023-08-21T14:17:51;2.27;;;0.23;;
70951;SDS011;69214;55.880;37.542;2023-08-21T14:20:17;1.30;;;0.30;;
70951;SDS011;69214;55.880;37.542;2023-08-21T14:22:43;0.95;;;0.22;;
70951;SDS011;69214;55.880;37.542;2023-08-21T14:25:09;3.92;;;0.50;;
70951;SDS011;69214;55.880;37.542;2023-08-21T14:27:36;1.57;;;0.30;;
70951;SDS011;69214;55.880;37.542;2023-08-21T14:30:02;0.93;;;0.20;;
70951;SDS011;69214;55.880;37.542;2023-08-21T14:32:31;1.42;;;0.40;;
70951;SDS011;69214;55.880;37.542;2023-08-21T14:34:57;1.95;;;0.30;;
70951;SDS011;69214;55.880;37.542;2023-08-21T14:37:23;2.20;;;0.33;;
70951;SDS011;69214;55.880;37.542;2023-08-21T14:39:49;1.75;;;0.25;;
70951;SDS011;69214;55.880;37.542;2023-08-21T14:42:15;1.25;;;0.30;;
70951;SDS011;69214;55.880;37.542;2023-08-21T14:44:41;2.03;;;0.40;;
70951;SDS011;69214;55.880;37.542;2023-08-21T14:47:07;2.00;;;0.30;;
70951;SDS011;69214;55.880;37.542;2023-08-21T14:49:33;2.30;;;0.30;;
70951;SDS011;69214;55.880;37.542;2023-08-21T14:51:58;1.08;;;0.20;;
70951;SDS011;69214;55.880;37.542;2023-08-21T14:54:24;1.93;;;0.27;;